Time;durP1;ratioP1;P1;durP2;ratioP2;P2;SDS_P1;SDS_P2;PMS_P1;PMS_P2;Temp;Humidity;BMP_temperature;BMP_pressure;BME280_temperature;BME280_humidity;BME280_pressure;Samples;Min_cycle;Max_cycle;Signal;HPM_P1;HPM_P2
2021/03/22 00:00:37;;;;;;;26.85;4.22;;;5.30;76.00;;;;;;5115753;28;20015;-36
2021/03/22 00:03:04;;;;;;;31.27;7.15;;;5.30;76.00;;;;;;5115904;28;20141;-36
2021/03/22 00:05:30;;;;;;;16.30;4.10;;;5.30;75.90;;;;;;5115870;28;20019;-36
2021/03/22 00:07:55;;;;;;;28.52;4.75;;;5.30;76.60;;;;;;5115467;28;20027;-36
2021/03/22 00:10:23;;;;;;;20.98;3.92;;;5.20;76.90;;;;;;5115450;28;20475;-36
2021/03/22 00:12:50;;;;;;;23.75;3.92;;;5.30;76.90;;;;;;5116013;27;20394;-36
2021/03/22 00:15:17;;;;;;;27.52;4.40;;;5.20;77.10;;;;;;5115640;28;20023;-36
2021/03/22 00:17:44;;;;;;;24.80;4.40;;;5.20;77.00;;;;;;5115523;28;20024;-35
2021/03/22 00:20:11;;;;;;;23.95;4.47;;;5.10;77.60;;;;;;5115337;28;20099;-35
2021/03/22 00:22:37;;;;;;;24.35;6.00;;;5.00;78.10;;;;;;5115404;27;20051;-37
2021/03/22 00:25:04;;;;;;;26.75;4.53;;;5.00;78.30;;;;;;5115181;28;20054;-35
2021/03/22 00:27:30;;;;;;;21.90;3.17;;;5.00;78.10;;;;;;5115051;28;20479;-35
2021/03/22 00:29:55;;;;;;;17.83;5.03;;;5.10;78.30;;;;;;5115017;28;20019;-35
2021/03/22 00:32:21;;;;;;;31.95;5.93;;;5.00;78.80;;;;;;5115280;28;20467;-35
2021/03/22 00:34:47;;;;;;;30.02;5.38;;;5.10;78.90;;;;;;5115193;28;20024;-37
2021/03/22 00:37:13;;;;;;;26.77;4.40;;;5.20;78.80;;;;;;5114847;28;20436;-35
2021/03/22 00:39:38;;;;;;;22.00;4.32;;;5.20;78.80;;;;;;5114745;28;20051;-35
2021/03/22 00:42:04;;;;;;;31.48;4.80;;;5.10;78.90;;;;;;5114796;28;20016;-37
2021/03/22 00:44:30;;;;;;;25.50;3.90;;;5.00;79.00;;;;;;5113454;28;20058;-37
2021/03/22 00:46:56;;;;;;;18.52;4.35;;;5.00;79.00;;;;;;5114532;28;20055;-35
2021/03/22 00:49:22;;;;;;;41.28;6.38;;;5.00;79.40;;;;;;5114939;28;20191;-35
2021/03/22 00:51:47;;;;;;;24.60;5.40;;;5.00;79.10;;;;;;5114837;28;20364;-35
2021/03/22 00:54:13;;;;;;;20.33;3.92;;;4.90;79.40;;;;;;5114410;28;20024;-36
2021/03/22 00:56:39;;;;;;;33.97;6.03;;;4.90;79.70;;;;;;5114342;28;20023;-35
2021/03/22 00:59:05;;;;;;;18.90;4.20;;;5.00;79.20;;;;;;5113185;28;20053;-36
2021/03/22 01:01:31;;;;;;;20.02;4.75;;;5.00;79.20;;;;;;5114618;28;20027;-35
2021/03/22 01:03:56;;;;;;;23.02;4.50;;;5.20;78.70;;;;;;5113765;28;20027;-36
2021/03/22 01:06:22;;;;;;;18.38;3.85;;;5.20;78.50;;;;;;5114533;28;20020;-35
2021/03/22 01:08:48;;;;;;;31.25;5.20;;;5.20;79.10;;;;;;5114627;28;20077;-36
2021/03/22 01:11:17;;;;;;;20.90;5.40;;;5.20;78.90;;;;;;5114226;28;20020;-35
2021/03/22 01:13:51;;;;;;;17.60;3.72;;;5.20;79.00;;;;;;5113923;28;20122;-35
2021/03/22 01:16:26;;;;;;;29.23;5.15;;;5.30;79.00;;;;;;5114045;28;20016;-35
2021/03/22 01:18:54;;;;;;;27.75;4.50;;;5.30;78.60;;;;;;5114456;28;20419;-35
2021/03/22 01:21:32;;;;;;;22.23;4.18;;;5.20;79.20;;;;;;5114037;28;20020;-35
2021/03/22 01:23:58;;;;;;;18.73;4.75;;;5.30;79.30;;;;;;5114242;28;20043;-35
2021/03/22 01:26:27;;;;;;;22.08;4.07;;;5.20;79.90;;;;;;5114067;28;20023;-35
2021/03/22 01:28:54;;;;;;;17.75;5.40;;;5.30;79.20;;;;;;5113813;28;20065;-35
2021/03/22 01:31:20;;;;;;;19.63;4.10;;;5.20;79.70;;;;;;5114119;28;20026;-35
2021/03/22 01:33:49;;;;;;;22.10;4.15;;;5.40;78.90;;;;;;5113675;28;20020;-35
2021/03/22 01:36:20;;;;;;;16.85;3.70;;;5.40;78.70;;;;;;5113711;28;20028;-35
2021/03/22 01:38:47;;;;;;;13.85;4.13;;;5.30;79.20;;;;;;5113726;28;20011;-35
2021/03/22 01:41:40;;;;;;;20.25;5.55;;;5.30;79.20;;;;;;5114026;28;20027;-35
2021/03/22 01:44:14;;;;;;;14.93;3.63;;;5.30;79.50;;;;;;5113739;28;20042;-35
2021/03/22 01:46:50;;;;;;;25.50;3.92;;;5.20;80.00;;;;;;5113902;28;20099;-35
2021/03/22 01:49:17;;;;;;;26.58;4.22;;;5.30;79.30;;;;;;5113711;28;20176;-35
2021/03/22 01:51:43;;;;;;;21.83;4.70;;;5.30;79.30;;;;;;5113689;28;20077;-35
2021/03/22 01:54:11;;;;;;;25.50;4.10;;;5.30;79.00;;;;;;5114152;28;20544;-36
2021/03/22 01:56:48;;;;;;;22.98;3.92;;;5.30;79.00;;;;;;5113241;28;20020;-35
2021/03/22 01:59:18;;;;;;;33.55;5.68;;;5.20;79.40;;;;;;5113923;28;20042;-35
2021/03/22 02:01:50;;;;;;;28.70;4.88;;;5.20;79.50;;;;;;5113776;28;20024;-35
2021/03/22 02:04:16;;;;;;;28.67;4.38;;;5.10;80.20;;;;;;5113524;28;20063;-35
2021/03/22 02:06:42;;;;;;;28.40;4.60;;;5.20;80.00;;;;;;5113750;28;20028;-35
2021/03/22 02:09:08;;;;;;;20.17;4.45;;;5.20;80.00;;;;;;5113619;28;20028;-35
2021/03/22 02:11:35;;;;;;;15.15;3.00;;;5.10;79.90;;;;;;5113125;28;20028;-36
2021/03/22 02:14:04;;;;;;;24.90;4.40;;;5.10;80.00;;;;;;5113222;28;20059;-35
2021/03/22 02:16:54;;;;;;;30.30;6.00;;;5.10;80.40;;;;;;5115871;28;20023;-36
2021/03/22 02:19:40;;;;;;;34.05;4.38;;;5.20;80.10;;;;;;5117461;28;20024;-36
2021/03/22 02:22:37;;;;;;;23.23;4.38;;;5.30;80.10;;;;;;5117301;28;20023;-36
2021/03/22 02:25:08;;;;;;;22.42;3.90;;;5.10;80.50;;;;;;5117406;28;20024;-35
2021/03/22 02:28:01;;;;;;;21.88;3.88;;;5.00;80.70;;;;;;5117102;28;20020;-35
2021/03/22 02:30:46;;;;;;;19.08;4.05;;;5.00;80.90;;;;;;5116068;28;20135;-35
2021/03/22 02:33:17;;;;;;;14.98;4.38;;;5.10;80.80;;;;;;5117759;28;20119;-35
2021/03/22 02:35:50;;;;;;;32.42;6.38;;;5.10;80.80;;;;;;5117545;28;20063;-35
2021/03/22 02:38:23;;;;;;;23.40;4.63;;;5.00;81.10;;;;;;5117527;28;20019;-35
2021/03/22 02:40:56;;;;;;;22.20;5.53;;;5.10;80.80;;;;;;5119343;28;20046;-35
2021/03/22 02:43:22;;;;;;;22.63;5.97;;;5.10;80.80;;;;;;5117443;28;20023;-35
2021/03/22 02:45:48;;;;;;;22.08;4.78;;;5.00;80.80;;;;;;5117229;28;20039;-35
2021/03/22 02:48:20;;;;;;;15.38;4.15;;;4.90;81.30;;;;;;5117701;28;20062;-35
2021/03/22 02:50:50;;;;;;;24.52;5.32;;;5.00;81.40;;;;;;5117159;28;20020;-35
2021/03/22 02:53:26;;;;;;;22.58;5.65;;;5.00;81.40;;;;;;5116890;28;20031;-35
2021/03/22 02:56:24;;;;;;;22.60;5.13;;;4.90;81.30;;;;;;5116961;28;20019;-35
2021/03/22 02:59:11;;;;;;;16.33;4.32;;;4.90;81.40;;;;;;5114896;28;20074;-35
2021/03/22 03:01:42;;;;;;;21.52;4.95;;;4.90;81.20;;;;;;5117447;28;20062;-35
2021/03/22 03:04:11;;;;;;;26.85;4.63;;;4.80;81.60;;;;;;5115626;28;20409;-35
2021/03/22 03:06:49;;;;;;;20.75;5.43;;;4.80;82.00;;;;;;5117171;28;20024;-35
2021/03/22 03:09:17;;;;;;;20.83;8.90;;;5.00;81.70;;;;;;5116705;28;20486;-35
2021/03/22 03:11:43;;;;;;;30.92;5.13;;;5.00;81.40;;;;;;5116607;28;20471;-35
2021/03/22 03:14:09;;;;;;;19.63;4.90;;;4.90;81.80;;;;;;5116765;28;20089;-35
2021/03/22 03:16:35;;;;;;;29.95;4.32;;;4.80;82.30;;;;;;5116461;28;20024;-35
2021/03/22 03:19:01;;;;;;;19.00;4.07;;;4.90;82.10;;;;;;5116379;28;20072;-36
2021/03/22 03:21:27;;;;;;;26.80;4.72;;;4.90;81.90;;;;;;5116630;28;20019;-35
2021/03/22 03:23:53;;;;;;;18.08;4.03;;;4.80;82.40;;;;;;5116378;28;20482;-35
2021/03/22 03:26:19;;;;;;;18.10;4.82;;;4.80;82.30;;;;;;5116517;28;20023;-35
2021/03/22 03:28:45;;;;;;;24.25;5.25;;;4.80;82.20;;;;;;5116022;28;20374;-35
2021/03/22 03:31:11;;;;;;;21.35;3.88;;;4.80;82.10;;;;;;5116493;28;20096;-35
2021/03/22 03:33:37;;;;;;;23.50;5.05;;;4.80;82.40;;;;;;5116121;28;20115;-35
2021/03/22 03:36:03;;;;;;;10.82;3.80;;;4.80;82.20;;;;;;5116118;28;20107;-35
2021/03/22 03:38:28;;;;;;;19.73;5.30;;;4.80;82.60;;;;;;5116051;28;20462;-35
2021/03/22 03:40:54;;;;;;;33.85;5.05;;;4.80;82.70;;;;;;5116005;28;20015;-36
2021/03/22 03:43:20;;;;;;;22.23;4.75;;;4.70;82.80;;;;;;5116198;28;20024;-35
2021/03/22 03:45:49;;;;;;;18.85;4.43;;;4.50;83.60;;;;;;5116156;28;20428;-35
2021/03/22 03:48:22;;;;;;;17.42;4.60;;;4.50;84.10;;;;;;5114332;28;20085;-35
2021/03/22 03:50:48;;;;;;;25.58;4.97;;;4.50;83.70;;;;;;5116117;28;20368;-35
2021/03/22 03:53:14;;;;;;;22.63;5.18;;;4.70;83.50;;;;;;5115631;28;20368;-35
2021/03/22 03:55:41;;;;;;;30.95;5.55;;;4.70;83.00;;;;;;5115751;28;20020;-35
2021/03/22 03:58:07;;;;;;;16.95;5.45;;;4.50;83.90;;;;;;5115607;28;20031;-35
2021/03/22 04:00:36;;;;;;;31.60;4.97;;;4.50;83.90;;;;;;5115918;28;20027;-35
2021/03/22 04:03:21;;;;;;;16.98;5.00;;;4.40;84.50;;;;;;5115531;28;20068;-35
2021/03/22 04:05:56;;;;;;;22.42;6.22;;;4.50;84.20;;;;;;5115809;28;20031;-36
2021/03/22 04:08:21;;;;;;;16.50;4.50;;;4.40;84.50;;;;;;5115866;28;20024;-36
2021/03/22 04:10:49;;;;;;;18.55;6.22;;;4.70;84.00;;;;;;5115817;28;20030;-45
2021/03/22 04:13:15;;;;;;;21.17;5.40;;;4.60;84.10;;;;;;5115583;28;20497;-35
2021/03/22 04:15:41;;;;;;;19.90;5.35;;;4.70;83.90;;;;;;5115735;28;20024;-36
2021/03/22 04:18:06;;;;;;;32.45;6.85;;;4.60;84.10;;;;;;5115668;28;20020;-35
2021/03/22 04:20:32;;;;;;;30.35;5.45;;;4.60;83.80;;;;;;5115531;28;20027;-36
2021/03/22 04:22:58;;;;;;;27.90;5.53;;;4.50;84.10;;;;;;5115257;27;20122;-36
2021/03/22 04:25:23;;;;;;;28.02;5.28;;;4.50;84.70;;;;;;5115180;28;20027;-35
2021/03/22 04:27:49;;;;;;;22.23;6.28;;;4.60;84.40;;;;;;5115005;28;20034;-36
2021/03/22 04:30:15;;;;;;;34.20;5.30;;;4.50;84.60;;;;;;5113703;28;20359;-36
2021/03/22 04:32:41;;;;;;;18.02;4.75;;;4.70;84.50;;;;;;5114925;28;20110;-35
2021/03/22 04:35:07;;;;;;;28.85;5.68;;;4.70;84.50;;;;;;5115288;28;20484;-35
2021/03/22 04:37:33;;;;;;;38.00;8.55;;;4.40;85.70;;;;;;5114927;28;20020;-35
2021/03/22 04:39:58;;;;;;;18.00;5.28;;;4.40;86.00;;;;;;5113860;28;20107;-35
2021/03/22 04:42:24;;;;;;;25.92;7.30;;;4.40;85.60;;;;;;5115116;28;20043;-35
2021/03/22 04:44:50;;;;;;;27.73;6.68;;;4.40;86.40;;;;;;5114749;28;20026;-36
2021/03/22 04:47:15;;;;;;;28.80;7.03;;;4.30;86.30;;;;;;5114790;28;20043;-36
2021/03/22 04:49:41;;;;;;;30.60;5.50;;;4.50;85.70;;;;;;5114744;28;20020;-36
2021/03/22 04:52:07;;;;;;;26.92;6.18;;;4.50;85.90;;;;;;5114632;28;20016;-35
2021/03/22 04:54:33;;;;;;;21.58;6.38;;;4.60;85.30;;;;;;5114764;28;20092;-35
2021/03/22 04:57:13;;;;;;;19.27;5.05;;;4.50;85.80;;;;;;5114587;28;20471;-35
2021/03/22 04:59:39;;;;;;;25.48;5.10;;;4.30;86.90;;;;;;5114593;28;20032;-36
2021/03/22 05:02:05;;;;;;;56.97;7.47;;;4.30;86.90;;;;;;5114451;28;20381;-36
2021/03/22 05:04:31;;;;;;;31.63;6.03;;;4.30;87.10;;;;;;5114511;28;20055;-35
2021/03/22 05:06:57;;;;;;;25.27;7.70;;;4.20;87.10;;;;;;5113546;28;20058;-35
2021/03/22 05:09:22;;;;;;;21.45;8.15;;;4.30;87.40;;;;;;5114376;28;20464;-34
2021/03/22 05:11:48;;;;;;;25.27;7.50;;;4.30;87.20;;;;;;5114297;28;20543;-35
2021/03/22 05:14:14;;;;;;;26.67;7.20;;;4.40;87.10;;;;;;5114561;28;20027;-35
2021/03/22 05:16:39;;;;;;;35.70;8.25;;;4.20;87.50;;;;;;5114261;28;20427;-36
2021/03/22 05:19:05;;;;;;;25.58;6.22;;;4.10;88.20;;;;;;5112900;28;20072;-35
2021/03/22 05:21:30;;;;;;;27.67;6.60;;;4.20;88.00;;;;;;5114125;28;20065;-35
2021/03/22 05:23:56;;;;;;;34.70;8.00;;;4.30;87.70;;;;;;5114263;28;20051;-35
2021/03/22 05:26:22;;;;;;;25.60;7.40;;;4.10;87.90;;;;;;5113900;28;20502;-35
2021/03/22 05:28:47;;;;;;;31.35;9.05;;;4.10;89.00;;;;;;5114130;28;20023;-36
2021/03/22 05:31:13;;;;;;;42.30;8.57;;;4.20;88.10;;;;;;5112612;28;20037;-36
2021/03/22 05:33:39;;;;;;;42.50;8.82;;;4.20;88.20;;;;;;5113956;28;20032;-35
2021/03/22 05:36:05;;;;;;;22.17;7.72;;;4.30;87.50;;;;;;5114557;28;20099;-35
2021/03/22 05:38:32;;;;;;;23.27;7.78;;;4.30;87.80;;;;;;5113685;28;20027;-35
2021/03/22 05:41:08;;;;;;;31.35;6.43;;;4.40;87.50;;;;;;5113681;28;20020;-35
2021/03/22 05:43:51;;;;;;;21.17;9.40;;;4.30;87.60;;;;;;5114083;28;20051;-35
2021/03/22 05:46:42;;;;;;;38.50;9.82;;;4.30;87.90;;;;;;5113979;28;20471;-35
2021/03/22 05:49:22;;;;;;;24.52;6.40;;;4.30;88.00;;;;;;5114106;28;20364;-35
2021/03/22 05:52:18;;;;;;;23.77;7.25;;;4.40;87.50;;;;;;5113801;28;20028;-35
2021/03/22 05:54:53;;;;;;;29.65;7.20;;;4.50;87.50;;;;;;5108873;28;20027;-35
2021/03/22 05:57:44;;;;;;;28.67;6.65;;;4.50;87.50;;;;;;5113879;28;20468;-35
2021/03/22 06:00:26;;;;;;;30.15;7.05;;;4.40;87.40;;;;;;5112267;28;20019;-35
2021/03/22 06:03:27;;;;;;;31.83;8.35;;;4.40;87.30;;;;;;5113827;28;20399;-35
2021/03/22 06:06:06;;;;;;;;;;;4.50;87.20;;;;;;5106221;28;20035;-36
2021/03/22 06:08:50;;;;;;;22.88;6.32;;;4.70;86.90;;;;;;5113703;28;19942;-35
2021/03/22 06:11:34;;;;;;;22.42;6.70;;;4.80;86.20;;;;;;5113786;28;20030;-35
2021/03/22 06:14:08;;;;;;;23.00;7.07;;;4.80;86.10;;;;;;5113641;28;20023;-35
2021/03/22 06:16:38;;;;;;;21.27;7.47;;;4.90;85.80;;;;;;5113825;28;20023;-36
2021/03/22 06:19:08;;;;;;;30.63;9.40;;;4.70;86.40;;;;;;5113672;28;20126;-36
2021/03/22 06:21:36;;;;;;;24.90;8.68;;;4.80;85.90;;;;;;5111908;28;20419;-37
2021/03/22 06:24:20;;;;;;;24.52;8.10;;;4.80;85.70;;;;;;5113411;28;20024;-35
2021/03/22 06:26:51;;;;;;;25.38;8.35;;;4.60;86.40;;;;;;5113069;28;20060;-35
2021/03/22 06:29:19;;;;;;;24.20;6.70;;;4.70;86.80;;;;;;5111844;28;20059;-35
2021/03/22 06:31:46;;;;;;;24.83;7.72;;;4.70;86.30;;;;;;5113009;28;20038;-35
2021/03/22 06:34:14;;;;;;;26.58;7.07;;;4.80;86.30;;;;;;5112797;28;20055;-35
2021/03/22 06:36:40;;;;;;;29.13;8.50;;;4.80;86.00;;;;;;5113235;28;20123;-35
2021/03/22 06:39:08;;;;;;;19.95;5.88;;;4.80;86.10;;;;;;5113145;28;20072;-36
2021/03/22 06:41:53;;;;;;;22.17;8.40;;;4.70;86.50;;;;;;5111767;28;20035;-35
2021/03/22 06:44:33;;;;;;;17.02;6.43;;;4.80;86.10;;;;;;5113076;28;20027;-35
2021/03/22 06:47:04;;;;;;;25.65;7.80;;;4.80;86.00;;;;;;5112871;28;20023;-35
2021/03/22 06:49:36;;;;;;;30.65;7.05;;;4.90;86.00;;;;;;5112929;28;20502;-35
2021/03/22 06:52:11;;;;;;;19.35;5.88;;;5.00;85.40;;;;;;5113318;28;20136;-35
2021/03/22 06:54:39;;;;;;;17.13;7.28;;;5.10;85.10;;;;;;5112994;28;20046;-35
2021/03/22 06:57:16;;;;;;;17.30;5.97;;;5.40;84.30;;;;;;5112774;28;20387;-36
2021/03/22 07:00:00;;;;;;;20.25;5.65;;;5.50;84.30;;;;;;5112861;28;20023;-36
2021/03/22 07:02:26;;;;;;;20.10;6.00;;;5.60;83.30;;;;;;5113466;28;20491;-36
2021/03/22 07:04:52;;;;;;;20.35;5.95;;;5.70;83.20;;;;;;5116596;28;20062;-36
2021/03/22 07:07:19;;;;;;;13.55;5.55;;;5.60;83.80;;;;;;5116287;28;20467;-36
2021/03/22 07:09:54;;;;;;;19.02;5.63;;;5.50;83.60;;;;;;5115644;28;20418;-35
2021/03/22 07:12:24;;;;;;;20.02;5.97;;;5.50;83.60;;;;;;5116738;28;20028;-35
2021/03/22 07:14:50;;;;;;;27.00;5.93;;;5.60;83.10;;;;;;5116593;28;20027;-35
2021/03/22 07:17:21;;;;;;;23.13;5.95;;;5.80;83.10;;;;;;5116193;28;20035;-35
2021/03/22 07:20:13;;;;;;;21.52;5.55;;;5.80;83.10;;;;;;5116415;28;20024;-36
2021/03/22 07:22:40;;;;;;;17.65;6.10;;;5.70;83.70;;;;;;5116391;28;20385;-35
2021/03/22 07:25:35;;;;;;;22.90;6.63;;;5.80;83.30;;;;;;5116066;28;20031;-36
2021/03/22 07:28:28;;;;;;;25.52;8.25;;;5.80;83.30;;;;;;5116172;27;20043;-35
2021/03/22 07:31:31;;;;;;;14.63;5.28;;;5.70;83.80;;;;;;5116039;28;20023;-36
2021/03/22 07:34:10;;;;;;;21.50;6.72;;;5.70;83.40;;;;;;5115949;28;20555;-36
2021/03/22 07:37:16;;;;;;;15.75;4.97;;;5.70;83.70;;;;;;5116445;28;20016;-36
2021/03/22 07:40:04;;;;;;;20.95;5.38;;;5.80;83.80;;;;;;5107065;28;20118;-36
2021/03/22 07:42:36;;;;;;;21.65;5.95;;;5.80;83.50;;;;;;5116047;28;20034;-35
2021/03/22 07:45:44;;;;;;;21.35;6.20;;;5.80;83.00;;;;;;5115748;28;20020;-36
2021/03/22 07:48:28;;;;;;;14.10;5.35;;;5.90;83.10;;;;;;5113526;28;20052;-36
2021/03/22 07:51:02;;;;;;;15.30;6.82;;;5.90;83.20;;;;;;5115445;28;20020;-36
2021/03/22 07:53:40;;;;;;;23.60;8.40;;;5.80;83.10;;;;;;5115554;28;20023;-35
2021/03/22 07:56:15;;;;;;;13.57;4.95;;;5.90;83.50;;;;;;5115473;28;20041;-36
2021/03/22 07:59:06;;;;;;;19.90;5.43;;;5.90;82.90;;;;;;5115086;28;20039;-36
2021/03/22 08:02:01;;;;;;;15.02;5.65;;;6.00;82.60;;;;;;5113697;28;20016;-36
2021/03/22 08:04:55;;;;;;;11.98;4.60;;;5.80;82.90;;;;;;5114907;28;20398;-36
2021/03/22 08:07:37;;;;;;;10.82;4.80;;;6.10;81.40;;;;;;5115638;28;20077;-43
2021/03/22 08:10:24;;;;;;;14.38;3.92;;;6.20;80.80;;;;;;5115090;28;20133;-36
2021/03/22 08:13:16;;;;;;;13.93;5.35;;;6.40;79.30;;;;;;5114971;28;20030;-37
2021/03/22 08:16:08;;;;;;;11.48;4.00;;;6.40;79.30;;;;;;5114661;28;20101;-37
2021/03/22 08:18:43;;;;;;;13.45;4.72;;;6.50;79.00;;;;;;5115342;28;20436;-36
2021/03/22 08:21:29;;;;;;;13.18;5.13;;;6.70;78.00;;;;;;5114416;28;20050;-37
2021/03/22 08:24:04;;;;;;;9.07;4.10;;;6.90;78.00;;;;;;5115390;28;20107;-36
2021/03/22 08:26:59;;;;;;;8.32;2.80;;;6.80;76.90;;;;;;5114666;28;20033;-36
2021/03/22 08:29:30;;;;;;;12.15;4.38;;;6.70;76.30;;;;;;5108905;28;20046;-36
2021/03/22 08:32:33;;;;;;;8.35;3.70;;;6.70;77.10;;;;;;5114782;28;20035;-36
2021/03/22 08:35:19;;;;;;;14.70;4.32;;;6.80;77.10;;;;;;5114715;28;20065;-38
2021/03/22 08:37:59;;;;;;;10.48;2.65;;;6.90;75.90;;;;;;5114126;28;20027;-37
2021/03/22 08:40:37;;;;;;;;;;;6.90;74.20;;;;;;5113972;28;20487;-36
2021/03/22 08:43:06;;;;;;;6.90;3.58;;;6.70;74.30;;;;;;5113380;28;19904;-36
2021/03/22 08:45:37;;;;;;;6.07;2.40;;;6.80;75.20;;;;;;5112518;28;20387;-36
2021/03/22 08:48:28;;;;;;;9.55;2.45;;;6.70;73.10;;;;;;5114160;28;20050;-37
2021/03/22 08:50:57;;;;;;;8.23;2.17;;;6.60;73.50;;;;;;5113630;28;20042;-38
2021/03/22 08:53:31;;;;;;;5.28;2.10;;;6.80;73.20;;;;;;5114041;28;20127;-37
2021/03/22 08:56:23;;;;;;;3.33;1.83;;;7.90;69.90;;;;;;5120567;28;20033;-37
2021/03/22 08:58:51;;;;;;;7.28;1.73;;;8.40;66.40;;;;;;5115001;28;20019;-37
2021/03/22 09:01:36;;;;;;;5.25;2.47;;;8.30;66.00;;;;;;5114152;28;20058;-37
2021/03/22 09:04:28;;;;;;;8.30;2.08;;;7.70;67.40;;;;;;5113961;28;20506;-37
2021/03/22 09:07:28;;;;;;;5.43;2.00;;;7.70;68.70;;;;;;5114483;28;20024;-37
2021/03/22 09:10:23;;;;;;;2.80;1.15;;;7.80;67.80;;;;;;5090847;28;20031;-37
2021/03/22 09:12:49;;;;;;;4.07;1.58;;;7.50;67.10;;;;;;5113894;28;20149;-37
2021/03/22 09:15:22;;;;;;;2.25;1.50;;;7.30;67.60;;;;;;5114226;28;20135;-37
2021/03/22 09:17:48;;;;;;;6.40;3.00;;;7.50;67.60;;;;;;5112519;28;20024;-38
2021/03/22 09:20:36;;;;;;;5.20;2.38;;;7.70;69.80;;;;;;5113780;28;20316;-38
2021/03/22 09:23:04;;;;;;;5.45;2.45;;;7.50;71.20;;;;;;5083711;28;20123;-37
2021/03/22 09:25:48;;;;;;;8.35;2.83;;;7.30;71.70;;;;;;5112677;28;20441;-38
2021/03/22 09:28:25;;;;;;;6.68;2.60;;;7.30;71.60;;;;;;5114297;28;20015;-37
2021/03/22 09:31:25;;;;;;;4.10;2.53;;;7.80;70.20;;;;;;5114297;28;20412;-38
2021/03/22 09:34:00;;;;;;;7.85;1.80;;;7.90;69.20;;;;;;5107983;28;20035;-37
2021/03/22 09:36:28;;;;;;;6.07;2.20;;;7.80;68.80;;;;;;5114305;28;20356;-37
2021/03/22 09:38:55;;;;;;;6.95;2.28;;;7.70;68.00;;;;;;5112817;28;20015;-37
2021/03/22 09:41:59;;;;;;;10.68;2.08;;;7.70;68.40;;;;;;5113993;28;20084;-36
2021/03/22 09:44:58;;;;;;;8.85;1.75;;;7.70;67.20;;;;;;5124276;28;20133;-37
2021/03/22 09:47:30;;;;;;;6.07;1.42;;;7.80;67.30;;;;;;5113151;28;20402;-37
2021/03/22 09:50:04;;;;;;;3.30;2.10;;;7.40;68.00;;;;;;5114227;28;20374;-37
2021/03/22 09:52:34;;;;;;;2.58;1.77;;;7.40;68.20;;;;;;5113415;28;20475;-37
2021/03/22 09:55:01;;;;;;;4.97;1.52;;;7.40;68.90;;;;;;5112997;28;20020;-36
2021/03/22 09:57:27;;;;;;;1.92;1.10;;;7.70;68.00;;;;;;5112764;28;20031;-37
2021/03/22 10:00:26;;;;;;;4.68;1.20;;;7.80;66.80;;;;;;5113217;28;20367;-38
2021/03/22 10:02:59;;;;;;;3.78;1.27;;;8.00;65.60;;;;;;5113411;28;20026;-37
2021/03/22 10:05:32;;;;;;;4.72;1.20;;;8.00;65.70;;;;;;5113546;28;20038;-38
2021/03/22 10:08:22;;;;;;;3.15;1.50;;;8.10;65.30;;;;;;5113244;28;20038;-38
2021/03/22 10:10:54;;;;;;;5.07;1.38;;;8.10;64.50;;;;;;5113498;28;20024;-38
2021/03/22 10:13:36;;;;;;;1.48;0.88;;;8.30;63.80;;;;;;5113718;28;20371;-38
2021/03/22 10:16:24;;;;;;;6.50;1.17;;;8.50;63.00;;;;;;5113054;28;20063;-37
2021/03/22 10:18:58;;;;;;;3.58;1.05;;;8.30;63.40;;;;;;5112908;28;20042;-37
2021/03/22 10:21:28;;;;;;;3.28;1.40;;;8.00;64.50;;;;;;5112753;28;20024;-38
2021/03/22 10:24:00;;;;;;;5.53;1.45;;;7.60;64.90;;;;;;5111604;28;20550;-38
2021/03/22 10:26:39;;;;;;;1.90;1.08;;;7.40;66.10;;;;;;5113178;28;20544;-36
2021/03/22 10:29:21;;;;;;;3.50;1.35;;;7.50;66.20;;;;;;5112848;28;20070;-36
2021/03/22 10:32:02;;;;;;;2.97;1.60;;;7.80;66.60;;;;;;5112955;28;20024;-36
2021/03/22 10:34:43;;;;;;;5.28;1.77;;;7.80;66.30;;;;;;5114475;28;20363;-37
2021/03/22 10:37:16;;;;;;;;;;;8.10;65.30;;;;;;5114554;28;20028;-39
2021/03/22 10:39:48;;;;;;;1.88;1.23;;;8.30;63.70;;;;;;5117282;28;19927;-37
2021/03/22 10:42:26;;;;;;;2.22;1.65;;;8.10;63.00;;;;;;5116789;28;20182;-36
2021/03/22 10:44:53;;;;;;;4.32;2.25;;;8.10;63.10;;;;;;5117138;28;20023;-36
2021/03/22 10:47:22;;;;;;;3.05;1.42;;;8.20;63.40;;;;;;5115883;28;20146;-37
2021/03/22 10:49:50;;;;;;;6.13;1.30;;;8.20;63.70;;;;;;5117934;27;20023;-38
2021/03/22 10:52:28;;;;;;;4.03;1.35;;;8.30;64.40;;;;;;5117031;27;20114;-37
2021/03/22 10:54:54;;;;;;;3.58;1.17;;;8.40;64.10;;;;;;5117061;28;20059;-36
2021/03/22 10:57:44;;;;;;;1.90;1.50;;;8.40;64.50;;;;;;5117195;28;20016;-36
2021/03/22 11:00:31;;;;;;;5.05;1.50;;;8.80;63.50;;;;;;5116130;28;20024;-37
2021/03/22 11:03:00;;;;;;;7.45;1.50;;;8.90;63.00;;;;;;5115119;28;20395;-39
2021/03/22 11:05:43;;;;;;;5.22;1.30;;;9.00;61.70;;;;;;5115946;28;20024;-36
2021/03/22 11:08:26;;;;;;;4.95;1.85;;;8.80;62.00;;;;;;5118818;28;20348;-37
2021/03/22 11:11:14;;;;;;;4.93;1.35;;;8.90;61.30;;;;;;5116962;28;20024;-36
2021/03/22 11:13:43;;;;;;;5.38;1.58;;;8.30;63.00;;;;;;5116494;28;20479;-37
2021/03/22 11:16:17;;;;;;;4.25;1.88;;;8.10;64.40;;;;;;5116122;28;20012;-36
2021/03/22 11:18:43;;;;;;;8.75;2.47;;;8.00;65.10;;;;;;5116836;28;20020;-37
2021/03/22 11:21:09;;;;;;;3.25;1.73;;;8.10;65.10;;;;;;5116166;28;20041;-37
2021/03/22 11:23:44;;;;;;;2.90;1.50;;;8.30;64.20;;;;;;5115155;28;20324;-37
2021/03/22 11:26:39;;;;;;;4.18;1.92;;;8.30;64.30;;;;;;5114698;28;20443;-37
2021/03/22 11:29:23;;;;;;;3.72;1.42;;;8.80;63.20;;;;;;5113589;28;20035;-36
2021/03/22 11:31:57;;;;;;;3.20;1.52;;;8.90;61.90;;;;;;5116863;28;20101;-37
2021/03/22 11:34:29;;;;;;;3.42;1.83;;;8.90;61.70;;;;;;5115837;28;20024;-39
2021/03/22 11:37:28;;;;;;;3.72;1.65;;;8.80;62.30;;;;;;5116633;28;20016;-38
2021/03/22 11:40:14;;;;;;;2.13;1.30;;;8.80;63.30;;;;;;5114677;28;20023;-37
2021/03/22 11:43:22;;;;;;;2.10;1.35;;;8.60;64.00;;;;;;5116782;28;20442;-36
2021/03/22 11:45:47;;;;;;;6.10;1.45;;;8.20;65.50;;;;;;5115508;28;20012;-36
2021/03/22 11:48:22;;;;;;;3.22;1.58;;;8.50;63.90;;;;;;5114912;28;20040;-37
2021/03/22 11:51:02;;;;;;;2.60;1.42;;;8.40;64.00;;;;;;5115200;28;20494;-38
2021/03/22 11:53:29;;;;;;;3.13;1.33;;;8.60;63.80;;;;;;5113938;28;20028;-37
2021/03/22 11:55:55;;;;;;;3.30;1.50;;;8.50;64.60;;;;;;5114429;28;20280;-36
2021/03/22 11:58:38;;;;;;;4.57;1.42;;;8.50;64.90;;;;;;5113945;28;20027;-38
2021/03/22 12:01:16;;;;;;;4.82;1.27;;;8.60;62.60;;;;;;5114013;28;20027;-38
2021/03/22 12:03:42;;;;;;;3.33;0.98;;;8.50;62.40;;;;;;5115727;28;20077;-38
2021/03/22 12:06:26;;;;;;;2.72;1.20;;;8.50;62.50;;;;;;5115407;28;20032;-37
2021/03/22 12:08:56;;;;;;;1.45;1.13;;;8.40;63.60;;;;;;5115685;28;20099;-38
2021/03/22 12:11:25;;;;;;;1.60;1.05;;;8.40;64.70;;;;;;5115520;27;20024;-38
2021/03/22 12:13:54;;;;;;;3.03;1.23;;;8.50;63.30;;;;;;5115336;28;20028;-38
2021/03/22 12:16:23;;;;;;;2.72;1.48;;;8.50;63.40;;;;;;5114460;28;20026;-40
2021/03/22 12:18:51;;;;;;;5.35;2.28;;;8.50;63.30;;;;;;5115051;28;20055;-41
2021/03/22 12:21:17;;;;;;;1.45;1.35;;;8.50;63.70;;;;;;5114997;28;20047;-36
2021/03/22 12:23:43;;;;;;;4.30;1.50;;;8.50;63.30;;;;;;5115139;28;20024;-38
2021/03/22 12:26:13;;;;;;;8.20;1.98;;;8.70;62.80;;;;;;5115082;28;20510;-37
2021/03/22 12:28:53;;;;;;;3.33;1.40;;;8.80;62.80;;;;;;5115582;28;20039;-36
2021/03/22 12:31:21;;;;;;;4.13;1.13;;;8.60;62.50;;;;;;5115109;28;20057;-38
2021/03/22 12:33:47;;;;;;;6.60;2.70;;;8.80;62.40;;;;;;5114538;28;20383;-38
2021/03/22 12:36:12;;;;;;;4.00;1.23;;;9.10;61.70;;;;;;5115221;28;20027;-37
2021/03/22 12:38:38;;;;;;;1.65;1.00;;;9.30;59.10;;;;;;5114664;28;20019;-38
2021/03/22 12:41:04;;;;;;;4.35;1.30;;;9.10;60.10;;;;;;5114976;28;20041;-38
2021/03/22 12:43:32;;;;;;;4.85;1.27;;;9.10;59.10;;;;;;5115331;27;20035;-38
2021/03/22 12:45:58;;;;;;;2.15;1.48;;;9.20;59.30;;;;;;5114293;28;20106;-37
2021/03/22 12:48:25;;;;;;;4.03;1.50;;;9.30;58.80;;;;;;5114311;28;20074;-37
2021/03/22 12:50:51;;;;;;;1.65;0.85;;;9.50;58.10;;;;;;5114175;28;20058;-37
2021/03/22 12:53:18;;;;;;;2.05;1.10;;;9.80;56.90;;;;;;5114141;28;20088;-37
2021/03/22 12:55:45;;;;;;;2.60;1.23;;;9.50;57.90;;;;;;5114571;28;20334;-37
2021/03/22 12:58:15;;;;;;;2.60;1.08;;;9.10;59.70;;;;;;5114508;28;20132;-36
2021/03/22 13:00:42;;;;;;;2.40;1.30;;;9.00;60.20;;;;;;5113745;28;20444;-38
2021/03/22 13:03:12;;;;;;;2.22;1.20;;;8.90;60.60;;;;;;5114752;28;20051;-36
2021/03/22 13:05:38;;;;;;;8.45;1.42;;;8.80;61.60;;;;;;5114847;28;20054;-37
2021/03/22 13:08:04;;;;;;;2.50;1.85;;;8.80;61.60;;;;;;5114196;28;20483;-38
2021/03/22 13:10:33;;;;;;;3.70;1.45;;;8.60;62.80;;;;;;5112774;28;20046;-37
2021/03/22 13:13:00;;;;;;;4.90;1.40;;;8.60;62.90;;;;;;5114000;28;20027;-37
2021/03/22 13:15:51;;;;;;;4.40;1.20;;;8.70;62.40;;;;;;5115056;28;20015;-37
2021/03/22 13:18:25;;;;;;;3.30;1.17;;;8.40;62.60;;;;;;5114236;28;20012;-37
2021/03/22 13:20:57;;;;;;;3.00;1.20;;;8.50;62.50;;;;;;5112583;28;20451;-37
2021/03/22 13:23:24;;;;;;;4.25;1.55;;;8.70;61.20;;;;;;5114216;28;20027;-36